Faro, Canada
Current Conditions -  °F | °C
As of 3:00 AM on Saturday 20 Dec 2014 (Local Time) from CYXY Reporting Station
Scattered Clouds Scattered Clouds  
Wind Chill:   Ceiling: Unl
Heat Index:   Visibility: 15mi
Dew Point:   Wind: 2mph
Humidity: 85%   Direction: 70°ENE
Pressure: 29.26"   Gusts: NA
Location:  62.19°N, 133.37°W
Report Text: CYXY 201100Z 07002KT 15SM SCT034 M13/M15 A2926 RMK SC4 SLP962
Loading
Personal Weather Stations






























Interactive Weather Map New forecast layout! Learn more

10-Day Weather Forecast

Advertisements
Track Severe Weather on mobile